sensor_id;sensor_type;location;lat;lon;timestamp;pressure;altitude;pressure_sealevel;temperature;humidity
21290;BME280;10804;48.988;2.408;2024-03-08T00:02:14;100387.22;;;10.97;71.56
21290;BME280;10804;48.988;2.408;2024-03-08T00:04:42;100382.09;;;10.94;71.51
21290;BME280;10804;48.988;2.408;2024-03-08T00:07:11;100375.22;;;10.91;71.70
21290;BME280;10804;48.988;2.408;2024-03-08T00:09:39;100371.75;;;10.91;71.67
21290;BME280;10804;48.988;2.408;2024-03-08T00:12:08;100368.34;;;10.89;71.82
21290;BME280;10804;48.988;2.408;2024-03-08T00:14:36;100365.78;;;10.87;71.94
21290;BME280;10804;48.988;2.408;2024-03-08T00:17:04;100373.69;;;10.86;71.84
21290;BME280;10804;48.988;2.408;2024-03-08T00:19:31;100377.22;;;10.83;71.75
21290;BME280;10804;48.988;2.408;2024-03-08T00:21:59;100365.94;;;10.83;71.95
21290;BME280;10804;48.988;2.408;2024-03-08T00:24:26;100351.25;;;10.80;71.83
21290;BME280;10804;48.988;2.408;2024-03-08T00:26:55;100359.13;;;10.79;71.81
21290;BME280;10804;48.988;2.408;2024-03-08T00:29:24;100354.81;;;10.78;71.68
21290;BME280;10804;48.988;2.408;2024-03-08T00:31:51;100353.13;;;10.77;71.85
21290;BME280;10804;48.988;2.408;2024-03-08T00:34:18;100349.69;;;10.75;71.93
21290;BME280;10804;48.988;2.408;2024-03-08T00:36:45;100343.66;;;10.73;71.79
21290;BME280;10804;48.988;2.408;2024-03-08T00:39:13;100344.56;;;10.72;71.99
21290;BME280;10804;48.988;2.408;2024-03-08T00:41:41;100339.47;;;10.69;71.97
21290;BME280;10804;48.988;2.408;2024-03-08T00:44:08;100338.66;;;10.67;71.97
21290;BME280;10804;48.988;2.408;2024-03-08T00:46:37;100330.03;;;10.65;71.92
21290;BME280;10804;48.988;2.408;2024-03-08T00:49:05;100328.38;;;10.62;72.01
21290;BME280;10804;48.988;2.408;2024-03-08T00:51:34;100319.72;;;10.62;71.86
21290;BME280;10804;48.988;2.408;2024-03-08T00:54:02;100310.25;;;10.58;72.09
21290;BME280;10804;48.988;2.408;2024-03-08T00:56:29;100312.03;;;10.57;72.08
21290;BME280;10804;48.988;2.408;2024-03-08T00:58:57;100305.94;;;10.57;72.10
21290;BME280;10804;48.988;2.408;2024-03-08T01:01:25;100303.47;;;10.54;71.97
21290;BME280;10804;48.988;2.408;2024-03-08T01:03:54;100296.47;;;10.54;72.09
21290;BME280;10804;48.988;2.408;2024-03-08T01:06:23;100301.72;;;10.53;72.02
21290;BME280;10804;48.988;2.408;2024-03-08T01:08:50;100296.63;;;10.50;72.18
21290;BME280;10804;48.988;2.408;2024-03-08T01:11:18;100292.31;;;10.49;71.83
21290;BME280;10804;48.988;2.408;2024-03-08T01:13:46;100279.41;;;10.46;72.32
21290;BME280;10804;48.988;2.408;2024-03-08T01:16:13;100290.69;;;10.45;72.31
21290;BME280;10804;48.988;2.408;2024-03-08T01:18:41;100282.88;;;10.45;71.96
21290;BME280;10804;48.988;2.408;2024-03-08T01:21:09;100269.91;;;10.43;72.19
21290;BME280;10804;48.988;2.408;2024-03-08T01:23:37;100267.34;;;10.42;72.06
21290;BME280;10804;48.988;2.408;2024-03-08T01:26:07;100263.06;;;10.39;72.26
21290;BME280;10804;48.988;2.408;2024-03-08T01:28:35;100261.38;;;10.38;72.19
21290;BME280;10804;48.988;2.408;2024-03-08T01:31:02;100257.06;;;10.37;72.10
21290;BME280;10804;48.988;2.408;2024-03-08T01:33:30;100264.88;;;10.37;72.23
21290;BME280;10804;48.988;2.408;2024-03-08T01:35:58;100264.13;;;10.34;72.51
21290;BME280;10804;48.988;2.408;2024-03-08T01:38:26;100259.78;;;10.34;72.23
21290;BME280;10804;48.988;2.408;2024-03-08T01:40:54;100250.31;;;10.32;72.05
21290;BME280;10804;48.988;2.408;2024-03-08T01:43:22;100249.44;;;10.31;72.33
21290;BME280;10804;48.988;2.408;2024-03-08T01:45:49;100241.66;;;10.30;72.33
21290;BME280;10804;48.988;2.408;2024-03-08T01:48:17;100234.75;;;10.29;72.11
21290;BME280;10804;48.988;2.408;2024-03-08T01:50:45;100224.56;;;10.23;72.15
21290;BME280;10804;48.988;2.408;2024-03-08T01:53:13;100232.25;;;10.26;72.38
21290;BME280;10804;48.988;2.408;2024-03-08T01:55:44;100224.56;;;10.23;72.47
21290;BME280;10804;48.988;2.408;2024-03-08T01:58:12;100222.81;;;10.22;72.41
21290;BME280;10804;48.988;2.408;2024-03-08T02:00:42;100216.00;;;10.18;71.97
21290;BME280;10804;48.988;2.408;2024-03-08T02:03:10;100219.41;;;10.20;72.20
21290;BME280;10804;48.988;2.408;2024-03-08T02:05:40;100211.72;;;10.17;72.40
21290;BME280;10804;48.988;2.408;2024-03-08T02:08:07;100210.88;;;10.15;72.48
21290;BME280;10804;48.988;2.408;2024-03-08T02:10:38;100209.19;;;10.14;72.13
21290;BME280;10804;48.988;2.408;2024-03-08T02:13:10;100199.72;;;10.11;72.15
21290;BME280;10804;48.988;2.408;2024-03-08T02:15:50;100193.78;;;10.08;72.45
21290;BME280;10804;48.988;2.408;2024-03-08T02:18:17;100186.78;;;10.08;72.28
21290;BME280;10804;48.988;2.408;2024-03-08T02:20:46;100189.44;;;10.07;72.27
21290;BME280;10804;48.988;2.408;2024-03-08T02:23:14;100183.44;;;10.05;72.51
21290;BME280;10804;48.988;2.408;2024-03-08T02:25:42;100173.94;;;10.02;72.44
21290;BME280;10804;48.988;2.408;2024-03-08T02:28:10;100176.53;;;10.02;72.40
21290;BME280;10804;48.988;2.408;2024-03-08T02:30:38;100168.81;;;9.99;72.41
21290;BME280;10804;48.988;2.408;2024-03-08T02:33:07;100163.66;;;9.98;72.45
21290;BME280;10804;48.988;2.408;2024-03-08T02:35:35;100159.41;;;9.95;72.27
21290;BME280;10804;48.988;2.408;2024-03-08T02:38:04;100156.78;;;9.95;72.46
21290;BME280;10804;48.988;2.408;2024-03-08T02:40:31;100151.66;;;9.94;72.50
21290;BME280;10804;48.988;2.408;2024-03-08T02:42:59;100150.81;;;9.92;72.59
21290;BME280;10804;48.988;2.408;2024-03-08T02:45:26;100147.44;;;9.90;72.33
21290;BME280;10804;48.988;2.408;2024-03-08T02:47:53;100150.03;;;9.90;72.27
21290;BME280;10804;48.988;2.408;2024-03-08T02:50:22;100144.03;;;9.88;72.47
21290;BME280;10804;48.988;2.408;2024-03-08T02:52:49;100138.03;;;9.86;72.19
21290;BME280;10804;48.988;2.408;2024-03-08T02:55:18;100132.84;;;9.84;72.73
21290;BME280;10804;48.988;2.408;2024-03-08T02:57:46;100126.78;;;9.84;72.66
21290;BME280;10804;48.988;2.408;2024-03-08T03:00:14;100125.16;;;9.81;72.61
21290;BME280;10804;48.988;2.408;2024-03-08T03:02:41;100113.00;;;9.80;72.44
21290;BME280;10804;48.988;2.408;2024-03-08T03:05:09;100112.19;;;9.80;72.58
21290;BME280;10804;48.988;2.408;2024-03-08T03:07:37;100104.44;;;9.77;72.49
21290;BME280;10804;48.988;2.408;2024-03-08T03:10:06;100104.50;;;9.75;72.39
21290;BME280;10804;48.988;2.408;2024-03-08T03:12:35;100095.84;;;9.75;72.52
21290;BME280;10804;48.988;2.408;2024-03-08T03:15:04;100087.22;;;9.73;72.66
21290;BME280;10804;48.988;2.408;2024-03-08T03:17:32;100092.44;;;9.73;72.54
21290;BME280;10804;48.988;2.408;2024-03-08T03:20:00;100084.75;;;9.70;72.71
21290;BME280;10804;48.988;2.408;2024-03-08T03:22:30;100072.59;;;9.69;72.51
21290;BME280;10804;48.988;2.408;2024-03-08T03:24:58;100064.00;;;9.67;72.17
21290;BME280;10804;48.988;2.408;2024-03-08T03:27:26;100059.69;;;9.66;72.68
21290;BME280;10804;48.988;2.408;2024-03-08T03:29:55;100057.13;;;9.64;72.85
21290;BME280;10804;48.988;2.408;2024-03-08T03:32:24;100058.00;;;9.65;72.71
21290;BME280;10804;48.988;2.408;2024-03-08T03:34:51;100057.19;;;9.63;72.84
21290;BME280;10804;48.988;2.408;2024-03-08T03:37:19;100060.72;;;9.62;72.90
21290;BME280;10804;48.988;2.408;2024-03-08T03:39:46;100059.88;;;9.60;72.63
21290;BME280;10804;48.988;2.408;2024-03-08T03:42:15;100058.19;;;9.59;72.69
21290;BME280;10804;48.988;2.408;2024-03-08T03:44:44;100055.69;;;9.56;72.71
21290;BME280;10804;48.988;2.408;2024-03-08T03:47:13;100055.69;;;9.56;72.73
21290;BME280;10804;48.988;2.408;2024-03-08T03:49:41;100050.56;;;9.53;72.47
21290;BME280;10804;48.988;2.408;2024-03-08T03:52:11;100037.56;;;9.53;73.23
21290;BME280;10804;48.988;2.408;2024-03-08T03:54:41;100035.06;;;9.50;72.73
21290;BME280;10804;48.988;2.408;2024-03-08T03:57:09;100031.66;;;9.48;72.69
21290;BME280;10804;48.988;2.408;2024-03-08T03:59:38;100030.75;;;9.49;73.21
21290;BME280;10804;48.988;2.408;2024-03-08T04:02:06;100034.34;;;9.45;72.59
21290;BME280;10804;48.988;2.408;2024-03-08T04:04:34;100031.75;;;9.45;72.67
21290;BME280;10804;48.988;2.408;2024-03-08T04:07:02;100037.03;;;9.43;72.67
21290;BME280;10804;48.988;2.408;2024-03-08T04:09:29;100034.47;;;9.42;72.72
21290;BME280;10804;48.988;2.408;2024-03-08T04:11:56;100033.59;;;9.41;72.60
21290;BME280;10804;48.988;2.408;2024-03-08T04:14:24;100037.97;;;9.41;72.86
21290;BME280;10804;48.988;2.408;2024-03-08T04:16:51;100037.19;;;9.39;72.61
21290;BME280;10804;48.988;2.408;2024-03-08T04:19:18;100030.31;;;9.36;72.90
21290;BME280;10804;48.988;2.408;2024-03-08T04:21:47;100035.53;;;9.36;73.00
21290;BME280;10804;48.988;2.408;2024-03-08T04:24:17;100036.41;;;9.35;73.02
21290;BME280;10804;48.988;2.408;2024-03-08T04:26:45;100043.38;;;9.35;72.81
21290;BME280;10804;48.988;2.408;2024-03-08T04:29:13;100042.50;;;9.34;73.13
21290;BME280;10804;48.988;2.408;2024-03-08T04:31:43;100043.47;;;9.32;73.02
21290;BME280;10804;48.988;2.408;2024-03-08T04:34:10;100041.75;;;9.31;73.23
21290;BME280;10804;48.988;2.408;2024-03-08T04:36:38;100035.69;;;9.30;72.65
21290;BME280;10804;48.988;2.408;2024-03-08T04:39:06;100027.94;;;9.29;73.17
21290;BME280;10804;48.988;2.408;2024-03-08T04:41:38;100027.16;;;9.27;73.25
21290;BME280;10804;48.988;2.408;2024-03-08T04:44:06;100023.69;;;9.26;73.18
21290;BME280;10804;48.988;2.408;2024-03-08T04:46:33;100016.84;;;9.24;72.54
21290;BME280;10804;48.988;2.408;2024-03-08T04:49:01;100012.50;;;9.23;72.80
21290;BME280;10804;48.988;2.408;2024-03-08T04:51:29;100004.72;;;9.23;73.30
21290;BME280;10804;48.988;2.408;2024-03-08T04:53:56;100003.09;;;9.20;72.97
21290;BME280;10804;48.988;2.408;2024-03-08T04:56:27;100001.34;;;9.19;73.24
21290;BME280;10804;48.988;2.408;2024-03-08T04:58:54;99991.94;;;9.17;73.06
21290;BME280;10804;48.988;2.408;2024-03-08T05:01:21;99987.59;;;9.16;72.88
21290;BME280;10804;48.988;2.408;2024-03-08T05:03:49;99979.78;;;9.16;72.82
21290;BME280;10804;48.988;2.408;2024-03-08T05:06:17;99981.59;;;9.14;73.08
21290;BME280;10804;48.988;2.408;2024-03-08T05:08:46;99993.69;;;9.15;73.20
21290;BME280;10804;48.988;2.408;2024-03-08T05:11:14;100001.59;;;9.12;72.93
21290;BME280;10804;48.988;2.408;2024-03-08T05:13:42;99991.25;;;9.10;73.04
21290;BME280;10804;48.988;2.408;2024-03-08T05:16:11;99992.19;;;9.08;73.14
21290;BME280;10804;48.988;2.408;2024-03-08T05:18:41;99991.34;;;9.07;73.08
21290;BME280;10804;48.988;2.408;2024-03-08T05:21:09;99994.84;;;9.06;73.10
21290;BME280;10804;48.988;2.408;2024-03-08T05:23:36;99983.59;;;9.06;73.16
21290;BME280;10804;48.988;2.408;2024-03-08T05:26:04;99985.50;;;9.01;72.87
21290;BME280;10804;48.988;2.408;2024-03-08T05:28:32;99980.31;;;9.01;73.36
21290;BME280;10804;48.988;2.408;2024-03-08T05:31:00;99975.97;;;9.00;73.13
21290;BME280;10804;48.988;2.408;2024-03-08T05:33:27;99976.03;;;8.98;73.25
21290;BME280;10804;48.988;2.408;2024-03-08T05:35:55;99963.97;;;8.96;73.45
21290;BME280;10804;48.988;2.408;2024-03-08T05:38:22;99970.09;;;8.95;73.50
21290;BME280;10804;48.988;2.408;2024-03-08T05:40:50;99966.63;;;8.94;73.52
21290;BME280;10804;48.988;2.408;2024-03-08T05:43:18;99951.97;;;8.92;73.36
21290;BME280;10804;48.988;2.408;2024-03-08T05:45:45;99955.47;;;8.91;73.10
21290;BME280;10804;48.988;2.408;2024-03-08T05:48:14;99945.97;;;8.90;72.96
21290;BME280;10804;48.988;2.408;2024-03-08T05:50:43;99961.56;;;8.90;73.55
21290;BME280;10804;48.988;2.408;2024-03-08T05:53:10;99958.19;;;8.88;73.51
21290;BME280;10804;48.988;2.408;2024-03-08T05:55:39;99950.41;;;8.86;73.16
21290;BME280;10804;48.988;2.408;2024-03-08T05:58:06;99945.22;;;8.86;73.33
21290;BME280;10804;48.988;2.408;2024-03-08T06:00:34;99959.13;;;8.85;73.37
21290;BME280;10804;48.988;2.408;2024-03-08T06:03:02;99945.22;;;8.86;73.41
21290;BME280;10804;48.988;2.408;2024-03-08T06:05:31;99949.66;;;8.83;73.68
21290;BME280;10804;48.988;2.408;2024-03-08T06:07:59;99947.09;;;8.81;73.32
21290;BME280;10804;48.988;2.408;2024-03-08T06:10:26;99949.81;;;8.78;72.98
21290;BME280;10804;48.988;2.408;2024-03-08T06:12:54;99950.66;;;8.79;73.74
21290;BME280;10804;48.988;2.408;2024-03-08T06:15:21;99951.59;;;8.76;73.22
21290;BME280;10804;48.988;2.408;2024-03-08T06:17:48;99960.22;;;8.77;73.08
21290;BME280;10804;48.988;2.408;2024-03-08T06:20:16;99964.59;;;8.76;73.72
21290;BME280;10804;48.988;2.408;2024-03-08T06:22:44;99962.03;;;8.75;73.24
21290;BME280;10804;48.988;2.408;2024-03-08T06:25:12;99962.91;;;8.75;73.26
21290;BME280;10804;48.988;2.408;2024-03-08T06:27:39;99965.56;;;8.72;73.37
21290;BME280;10804;48.988;2.408;2024-03-08T06:30:09;99948.28;;;8.71;73.79
21290;BME280;10804;48.988;2.408;2024-03-08T06:32:37;99952.66;;;8.71;73.78
21290;BME280;10804;48.988;2.408;2024-03-08T06:35:06;99948.38;;;8.68;73.34
21290;BME280;10804;48.988;2.408;2024-03-08T06:37:36;99939.72;;;8.68;73.04
21290;BME280;10804;48.988;2.408;2024-03-08T06:40:06;99938.06;;;8.65;73.55
21290;BME280;10804;48.988;2.408;2024-03-08T06:42:36;99938.03;;;8.67;74.07
21290;BME280;10804;48.988;2.408;2024-03-08T06:45:03;99938.97;;;8.64;73.36
21290;BME280;10804;48.988;2.408;2024-03-08T06:47:31;99941.63;;;8.63;73.67
21290;BME280;10804;48.988;2.408;2024-03-08T06:49:59;99931.25;;;8.63;73.31
21290;BME280;10804;48.988;2.408;2024-03-08T06:52:26;99928.66;;;8.63;73.56
21290;BME280;10804;48.988;2.408;2024-03-08T06:54:54;99930.41;;;8.61;73.55
21290;BME280;10804;48.988;2.408;2024-03-08T06:57:22;99936.50;;;8.60;73.78
21290;BME280;10804;48.988;2.408;2024-03-08T06:59:55;99921.81;;;8.59;73.18
21290;BME280;10804;48.988;2.408;2024-03-08T07:02:23;99929.63;;;8.59;73.57
21290;BME280;10804;48.988;2.408;2024-03-08T07:04:51;99930.53;;;8.58;73.49
21290;BME280;10804;48.988;2.408;2024-03-08T07:07:19;99928.75;;;8.58;73.47
21290;BME280;10804;48.988;2.408;2024-03-08T07:09:46;99920.91;;;8.60;73.84
21290;BME280;10804;48.988;2.408;2024-03-08T07:12:15;99910.53;;;8.60;73.43
21290;BME280;10804;48.988;2.408;2024-03-08T07:14:44;99917.50;;;8.59;73.46
21290;BME280;10804;48.988;2.408;2024-03-08T07:17:12;99920.91;;;8.60;73.83
21290;BME280;10804;48.988;2.408;2024-03-08T07:19:39;99915.66;;;8.63;73.52
21290;BME280;10804;48.988;2.408;2024-03-08T07:22:07;99921.78;;;8.60;73.16
21290;BME280;10804;48.988;2.408;2024-03-08T07:24:35;99912.16;;;8.64;73.15
21290;BME280;10804;48.988;2.408;2024-03-08T07:27:22;99904.34;;;8.64;73.49
21290;BME280;10804;48.988;2.408;2024-03-08T07:29:50;99906.09;;;8.63;73.51
21290;BME280;10804;48.988;2.408;2024-03-08T07:32:18;99902.59;;;8.64;73.33
21290;BME280;10804;48.988;2.408;2024-03-08T07:34:47;99905.16;;;8.66;73.46
21290;BME280;10804;48.988;2.408;2024-03-08T07:37:16;99899.09;;;8.65;73.07
21290;BME280;10804;48.988;2.408;2024-03-08T07:39:45;99886.91;;;8.67;73.38
21290;BME280;10804;48.988;2.408;2024-03-08T07:42:12;99900.75;;;8.68;73.68
21290;BME280;10804;48.988;2.408;2024-03-08T07:44:39;99903.31;;;8.69;73.40
21290;BME280;10804;48.988;2.408;2024-03-08T07:47:08;99898.81;;;8.74;73.34
21290;BME280;10804;48.988;2.408;2024-03-08T07:49:36;99886.69;;;8.73;73.19
21290;BME280;10804;48.988;2.408;2024-03-08T07:52:03;99892.72;;;8.75;73.39
21290;BME280;10804;48.988;2.408;2024-03-08T07:54:33;99899.56;;;8.78;73.08
21290;BME280;10804;48.988;2.408;2024-03-08T07:57:01;99895.22;;;8.78;72.79
21290;BME280;10804;48.988;2.408;2024-03-08T07:59:29;99901.16;;;8.82;72.77
21290;BME280;10804;48.988;2.408;2024-03-08T08:01:57;99892.50;;;8.81;73.03
21290;BME280;10804;48.988;2.408;2024-03-08T08:04:26;99895.81;;;8.86;73.01
21290;BME280;10804;48.988;2.408;2024-03-08T08:06:54;99888.78;;;8.90;72.88
21290;BME280;10804;48.988;2.408;2024-03-08T08:09:22;99886.13;;;8.91;73.12
21290;BME280;10804;48.988;2.408;2024-03-08T08:12:00;99893.00;;;8.94;72.60
21290;BME280;10804;48.988;2.408;2024-03-08T08:14:29;99882.50;;;8.95;72.87
21290;BME280;10804;48.988;2.408;2024-03-08T08:16:56;99876.31;;;8.99;72.89
21290;BME280;10804;48.988;2.408;2024-03-08T08:19:28;99874.56;;;9.00;72.72
21290;BME280;10804;48.988;2.408;2024-03-08T08:21:55;99870.13;;;9.03;72.92
21290;BME280;10804;48.988;2.408;2024-03-08T08:24:23;99870.97;;;9.04;73.00
21290;BME280;10804;48.988;2.408;2024-03-08T08:26:52;99866.47;;;9.09;72.82
21290;BME280;10804;48.988;2.408;2024-03-08T08:29:19;99867.28;;;9.11;72.40
21290;BME280;10804;48.988;2.408;2024-03-08T08:31:46;99864.72;;;9.09;72.73
21290;BME280;10804;48.988;2.408;2024-03-08T08:34:15;99864.56;;;9.14;72.21
21290;BME280;10804;48.988;2.408;2024-03-08T08:36:46;99860.13;;;9.16;72.28
21290;BME280;10804;48.988;2.408;2024-03-08T08:39:13;99864.34;;;9.20;72.20
21290;BME280;10804;48.988;2.408;2024-03-08T08:41:41;99856.56;;;9.20;72.10
21290;BME280;10804;48.988;2.408;2024-03-08T08:44:08;99864.19;;;9.24;72.22
21290;BME280;10804;48.988;2.408;2024-03-08T08:46:38;99859.75;;;9.28;71.94
21290;BME280;10804;48.988;2.408;2024-03-08T08:49:05;99841.50;;;9.29;72.17
21290;BME280;10804;48.988;2.408;2024-03-08T08:51:36;99838.72;;;9.34;72.04
21290;BME280;10804;48.988;2.408;2024-03-08T08:54:06;99845.50;;;9.38;72.03
21290;BME280;10804;48.988;2.408;2024-03-08T08:56:33;99837.66;;;9.39;71.85
21290;BME280;10804;48.988;2.408;2024-03-08T08:59:01;99836.69;;;9.42;72.12
21290;BME280;10804;48.988;2.408;2024-03-08T09:01:29;99829.69;;;9.44;71.79
21290;BME280;10804;48.988;2.408;2024-03-08T09:03:57;99827.81;;;9.47;71.84
21290;BME280;10804;48.988;2.408;2024-03-08T09:06:24;99826.88;;;9.50;71.80
21290;BME280;10804;48.988;2.408;2024-03-08T09:08:52;99807.69;;;9.52;72.04
21290;BME280;10804;48.988;2.408;2024-03-08T09:11:21;99817.94;;;9.57;72.04
21290;BME280;10804;48.988;2.408;2024-03-08T09:13:48;99817.81;;;9.60;71.95
21290;BME280;10804;48.988;2.408;2024-03-08T09:16:15;99812.53;;;9.63;71.67
21290;BME280;10804;48.988;2.408;2024-03-08T09:18:43;99810.66;;;9.66;72.10
21290;BME280;10804;48.988;2.408;2024-03-08T09:21:10;99799.25;;;9.69;72.23
21290;BME280;10804;48.988;2.408;2024-03-08T09:23:39;99800.81;;;9.74;72.12
21290;BME280;10804;48.988;2.408;2024-03-08T09:26:07;99798.94;;;9.78;72.16
21290;BME280;10804;48.988;2.408;2024-03-08T09:28:36;99797.06;;;9.81;72.25
21290;BME280;10804;48.988;2.408;2024-03-08T09:31:04;99791.75;;;9.84;72.11
21290;BME280;10804;48.988;2.408;2024-03-08T09:33:32;99791.56;;;9.89;71.91
21290;BME280;10804;48.988;2.408;2024-03-08T09:35:59;99787.97;;;9.93;72.17
21290;BME280;10804;48.988;2.408;2024-03-08T09:38:27;99783.53;;;9.95;72.18
21290;BME280;10804;48.988;2.408;2024-03-08T09:40:54;99778.19;;;9.98;72.29
21290;BME280;10804;48.988;2.408;2024-03-08T09:43:23;99783.22;;;10.02;72.22
21290;BME280;10804;48.988;2.408;2024-03-08T09:45:52;99777.09;;;10.05;72.03
21290;BME280;10804;48.988;2.408;2024-03-08T09:48:19;99776.91;;;10.09;72.57
21290;BME280;10804;48.988;2.408;2024-03-08T09:50:47;99776.72;;;10.14;72.43
21290;BME280;10804;48.988;2.408;2024-03-08T09:53:15;99775.75;;;10.16;72.20
21290;BME280;10804;48.988;2.408;2024-03-08T09:55:42;99768.66;;;10.20;72.48
21290;BME280;10804;48.988;2.408;2024-03-08T09:58:12;99758.16;;;10.23;72.39
21290;BME280;10804;48.988;2.408;2024-03-08T10:01:04;99758.78;;;10.28;72.43
21290;BME280;10804;48.988;2.408;2024-03-08T10:03:32;99743.06;;;10.31;72.23
21290;BME280;10804;48.988;2.408;2024-03-08T10:06:01;99749.03;;;10.33;72.49
21290;BME280;10804;48.988;2.408;2024-03-08T10:08:29;99748.84;;;10.37;72.49
21290;BME280;10804;48.988;2.408;2024-03-08T10:10:56;99741.75;;;10.41;72.47
21290;BME280;10804;48.988;2.408;2024-03-08T10:13:25;99730.22;;;10.46;72.60
21290;BME280;10804;48.988;2.408;2024-03-08T10:15:53;99729.31;;;10.47;72.78
21290;BME280;10804;48.988;2.408;2024-03-08T10:18:22;99718.69;;;10.52;72.54
21290;BME280;10804;48.988;2.408;2024-03-08T10:21:02;99712.47;;;10.56;72.52
21290;BME280;10804;48.988;2.408;2024-03-08T10:23:31;99715.69;;;10.61;72.48
21290;BME280;10804;48.988;2.408;2024-03-08T10:26:09;99711.28;;;10.63;72.32
21290;BME280;10804;48.988;2.408;2024-03-08T10:28:37;99713.56;;;10.70;72.46
21290;BME280;10804;48.988;2.408;2024-03-08T10:31:04;99710.69;;;10.76;72.45
21290;BME280;10804;48.988;2.408;2024-03-08T10:33:34;99713.13;;;10.81;72.19
21290;BME280;10804;48.988;2.408;2024-03-08T10:36:01;99719.91;;;10.85;72.24
21290;BME280;10804;48.988;2.408;2024-03-08T10:38:31;99707.50;;;10.90;72.24
21290;BME280;10804;48.988;2.408;2024-03-08T10:41:00;99700.38;;;10.93;71.98
21290;BME280;10804;48.988;2.408;2024-03-08T10:43:28;99697.53;;;10.99;72.09
21290;BME280;10804;48.988;2.408;2024-03-08T10:46:12;99693.72;;;11.06;71.92
21290;BME280;10804;48.988;2.408;2024-03-08T10:48:49;99680.47;;;11.11;71.74
21290;BME280;10804;48.988;2.408;2024-03-08T10:51:19;99685.44;;;11.17;71.72
21290;BME280;10804;48.988;2.408;2024-03-08T10:53:47;99681.69;;;11.22;71.51
21290;BME280;10804;48.988;2.408;2024-03-08T10:56:17;99677.97;;;11.28;71.57
21290;BME280;10804;48.988;2.408;2024-03-08T10:58:46;99679.44;;;11.33;71.49
21290;BME280;10804;48.988;2.408;2024-03-08T11:01:14;99666.19;;;11.38;71.27
21290;BME280;10804;48.988;2.408;2024-03-08T11:03:48;99659.00;;;11.43;71.35
21290;BME280;10804;48.988;2.408;2024-03-08T11:06:22;99653.50;;;11.48;71.37
21290;BME280;10804;48.988;2.408;2024-03-08T11:08:50;99651.53;;;11.53;71.29
21290;BME280;10804;48.988;2.408;2024-03-08T11:11:25;99659.09;;;11.59;71.19
21290;BME280;10804;48.988;2.408;2024-03-08T11:13:57;99651.88;;;11.64;71.06
21290;BME280;10804;48.988;2.408;2024-03-08T11:16:40;99646.38;;;11.70;70.95
21290;BME280;10804;48.988;2.408;2024-03-08T11:19:27;99639.03;;;11.78;71.10
21290;BME280;10804;48.988;2.408;2024-03-08T11:21:58;99630.91;;;11.84;70.94
21290;BME280;10804;48.988;2.408;2024-03-08T11:24:26;99635.81;;;11.90;70.69
21290;BME280;10804;48.988;2.408;2024-03-08T11:26:57;99633.78;;;11.97;70.70
21290;BME280;10804;48.988;2.408;2024-03-08T11:29:33;99629.94;;;12.04;70.76
21290;BME280;10804;48.988;2.408;2024-03-08T11:32:07;99632.16;;;12.11;70.51
21290;BME280;10804;48.988;2.408;2024-03-08T11:34:37;99625.72;;;12.18;70.67
21290;BME280;10804;48.988;2.408;2024-03-08T11:37:05;99628.03;;;12.24;70.40
21290;BME280;10804;48.988;2.408;2024-03-08T11:39:36;99626.72;;;12.33;70.09
21290;BME280;10804;48.988;2.408;2024-03-08T11:42:04;99623.72;;;12.40;70.33
21290;BME280;10804;48.988;2.408;2024-03-08T11:44:33;99611.09;;;12.48;70.04
21290;BME280;10804;48.988;2.408;2024-03-08T11:47:00;99608.25;;;12.53;69.92
21290;BME280;10804;48.988;2.408;2024-03-08T11:49:27;99616.53;;;12.61;70.04
21290;BME280;10804;48.988;2.408;2024-03-08T11:51:56;99611.00;;;12.67;69.84
21290;BME280;10804;48.988;2.408;2024-03-08T11:54:23;99607.81;;;12.77;69.54
21290;BME280;10804;48.988;2.408;2024-03-08T11:56:51;99605.66;;;12.85;69.63
21290;BME280;10804;48.988;2.408;2024-03-08T11:59:21;99598.97;;;12.97;69.30
21290;BME280;10804;48.988;2.408;2024-03-08T12:02:02;99592.31;;;13.07;69.42
21290;BME280;10804;48.988;2.408;2024-03-08T12:04:30;99590.03;;;13.16;69.19
21290;BME280;10804;48.988;2.408;2024-03-08T12:07:00;99591.22;;;13.26;68.84
21290;BME280;10804;48.988;2.408;2024-03-08T12:09:35;99573.31;;;13.34;68.96
21290;BME280;10804;48.988;2.408;2024-03-08T12:12:03;99572.66;;;13.46;68.36
21290;BME280;10804;48.988;2.408;2024-03-08T12:14:32;99583.53;;;13.54;68.53
21290;BME280;10804;48.988;2.408;2024-03-08T12:17:00;99569.78;;;13.66;68.51
21290;BME280;10804;48.988;2.408;2024-03-08T12:19:28;99574.47;;;13.75;68.23
21290;BME280;10804;48.988;2.408;2024-03-08T12:21:55;99565.25;;;13.84;68.20
21290;BME280;10804;48.988;2.408;2024-03-08T12:24:24;99554.13;;;13.94;67.87
21290;BME280;10804;48.988;2.408;2024-03-08T12:26:53;99556.22;;;14.03;67.87
21290;BME280;10804;48.988;2.408;2024-03-08T12:29:24;99552.97;;;14.14;67.89
21290;BME280;10804;48.988;2.408;2024-03-08T12:31:54;99552.47;;;14.23;67.28
21290;BME280;10804;48.988;2.408;2024-03-08T12:34:24;99544.97;;;14.31;67.10
21290;BME280;10804;48.988;2.408;2024-03-08T12:36:53;99547.91;;;14.40;66.99
21290;BME280;10804;48.988;2.408;2024-03-08T12:39:22;99539.69;;;14.46;66.99
21290;BME280;10804;48.988;2.408;2024-03-08T12:41:54;99540.06;;;14.54;66.93
21290;BME280;10804;48.988;2.408;2024-03-08T12:44:23;99543.06;;;14.62;66.57
21290;BME280;10804;48.988;2.408;2024-03-08T12:46:51;99530.31;;;14.70;66.42
21290;BME280;10804;48.988;2.408;2024-03-08T12:49:20;99532.56;;;14.76;66.50
21290;BME280;10804;48.988;2.408;2024-03-08T12:51:48;99518.03;;;14.85;66.26
21290;BME280;10804;48.988;2.408;2024-03-08T12:54:16;99517.63;;;14.91;66.32
21290;BME280;10804;48.988;2.408;2024-03-08T12:56:43;99509.47;;;14.95;66.14
21290;BME280;10804;48.988;2.408;2024-03-08T12:59:12;99508.16;;;15.02;65.85
21290;BME280;10804;48.988;2.408;2024-03-08T13:01:39;99508.50;;;15.10;65.77
21290;BME280;10804;48.988;2.408;2024-03-08T13:04:06;99500.16;;;15.18;65.66
21290;BME280;10804;48.988;2.408;2024-03-08T13:06:37;99497.03;;;15.25;65.61
21290;BME280;10804;48.988;2.408;2024-03-08T13:09:04;99493.28;;;15.29;65.55
21290;BME280;10804;48.988;2.408;2024-03-08T13:11:32;99495.44;;;15.37;65.21